sensor_id;sensor_type;location;lat;lon;timestamp;P1;durP1;ratioP1;P2;durP2;ratioP2
36799;SDS011;22752;51.960;5.886;2023-03-16T00:01:17;4.10;;;2.40;;
36799;SDS011;22752;51.960;5.886;2023-03-16T00:03:43;5.13;;;2.73;;
36799;SDS011;22752;51.960;5.886;2023-03-16T00:06:09;7.43;;;2.70;;
36799;SDS011;22752;51.960;5.886;2023-03-16T00:08:35;5.93;;;3.10;;
36799;SDS011;22752;51.960;5.886;2023-03-16T00:11:02;6.73;;;2.73;;
36799;SDS011;22752;51.960;5.886;2023-03-16T00:13:28;7.47;;;2.80;;
36799;SDS011;22752;51.960;5.886;2023-03-16T00:15:55;8.80;;;2.93;;
36799;SDS011;22752;51.960;5.886;2023-03-16T00:18:23;4.27;;;2.43;;
36799;SDS011;22752;51.960;5.886;2023-03-16T00:20:51;6.83;;;2.77;;
36799;SDS011;22752;51.960;5.886;2023-03-16T00:23:22;6.33;;;2.80;;
36799;SDS011;22752;51.960;5.886;2023-03-16T00:25:54;7.87;;;2.70;;
36799;SDS011;22752;51.960;5.886;2023-03-16T00:28:22;6.23;;;2.60;;
36799;SDS011;22752;51.960;5.886;2023-03-16T00:30:49;4.27;;;2.70;;
36799;SDS011;22752;51.960;5.886;2023-03-16T00:33:14;9.80;;;3.00;;
36799;SDS011;22752;51.960;5.886;2023-03-16T00:35:40;6.63;;;2.70;;
36799;SDS011;22752;51.960;5.886;2023-03-16T00:38:18;7.27;;;2.70;;
36799;SDS011;22752;51.960;5.886;2023-03-16T00:40:44;13.37;;;3.50;;
36799;SDS011;22752;51.960;5.886;2023-03-16T00:43:11;6.67;;;2.73;;
36799;SDS011;22752;51.960;5.886;2023-03-16T00:45:37;5.70;;;2.70;;
36799;SDS011;22752;51.960;5.886;2023-03-16T00:48:03;4.03;;;2.77;;
36799;SDS011;22752;51.960;5.886;2023-03-16T00:50:29;4.70;;;2.47;;
36799;SDS011;22752;51.960;5.886;2023-03-16T00:52:55;6.53;;;2.67;;
36799;SDS011;22752;51.960;5.886;2023-03-16T00:55:20;6.43;;;2.97;;
36799;SDS011;22752;51.960;5.886;2023-03-16T00:57:46;4.90;;;2.60;;
36799;SDS011;22752;51.960;5.886;2023-03-16T01:00:12;5.23;;;2.70;;
36799;SDS011;22752;51.960;5.886;2023-03-16T01:02:40;10.50;;;2.93;;
36799;SDS011;22752;51.960;5.886;2023-03-16T01:05:09;5.33;;;2.70;;
36799;SDS011;22752;51.960;5.886;2023-03-16T01:07:37;7.20;;;2.90;;
36799;SDS011;22752;51.960;5.886;2023-03-16T01:10:04;7.33;;;3.03;;
36799;SDS011;22752;51.960;5.886;2023-03-16T01:12:30;4.97;;;2.90;;
36799;SDS011;22752;51.960;5.886;2023-03-16T01:14:56;7.43;;;3.20;;
36799;SDS011;22752;51.960;5.886;2023-03-16T01:17:22;6.27;;;3.00;;
36799;SDS011;22752;51.960;5.886;2023-03-16T01:19:47;3.20;;;2.70;;
36799;SDS011;22752;51.960;5.886;2023-03-16T01:22:14;4.87;;;2.77;;
36799;SDS011;22752;51.960;5.886;2023-03-16T01:24:40;7.70;;;2.90;;
36799;SDS011;22752;51.960;5.886;2023-03-16T01:27:06;8.60;;;3.50;;
36799;SDS011;22752;51.960;5.886;2023-03-16T01:29:33;8.27;;;3.33;;
36799;SDS011;22752;51.960;5.886;2023-03-16T01:31:59;5.97;;;2.90;;
36799;SDS011;22752;51.960;5.886;2023-03-16T01:34:25;4.57;;;2.80;;
36799;SDS011;22752;51.960;5.886;2023-03-16T01:36:51;10.33;;;3.30;;
36799;SDS011;22752;51.960;5.886;2023-03-16T01:39:18;5.27;;;3.10;;
36799;SDS011;22752;51.960;5.886;2023-03-16T01:41:44;6.17;;;2.90;;
36799;SDS011;22752;51.960;5.886;2023-03-16T01:44:15;13.93;;;3.67;;
36799;SDS011;22752;51.960;5.886;2023-03-16T01:46:46;7.10;;;3.20;;
36799;SDS011;22752;51.960;5.886;2023-03-16T01:49:19;5.40;;;3.40;;
36799;SDS011;22752;51.960;5.886;2023-03-16T01:51:54;7.93;;;3.13;;
36799;SDS011;22752;51.960;5.886;2023-03-16T01:54:23;6.83;;;3.30;;
36799;SDS011;22752;51.960;5.886;2023-03-16T01:57:13;8.33;;;3.90;;
36799;SDS011;22752;51.960;5.886;2023-03-16T01:59:49;5.20;;;3.17;;
36799;SDS011;22752;51.960;5.886;2023-03-16T02:02:21;10.33;;;3.37;;
36799;SDS011;22752;51.960;5.886;2023-03-16T02:07:20;3.53;;;2.80;;
36799;SDS011;22752;51.960;5.886;2023-03-16T02:09:49;4.10;;;2.87;;
36799;SDS011;22752;51.960;5.886;2023-03-16T02:12:18;6.67;;;3.07;;
36799;SDS011;22752;51.960;5.886;2023-03-16T02:14:46;5.47;;;3.10;;
36799;SDS011;22752;51.960;5.886;2023-03-16T02:17:13;3.83;;;2.80;;
36799;SDS011;22752;51.960;5.886;2023-03-16T02:20:05;6.43;;;3.20;;
36799;SDS011;22752;51.960;5.886;2023-03-16T02:22:34;6.40;;;3.20;;
36799;SDS011;22752;51.960;5.886;2023-03-16T02:25:03;5.67;;;2.90;;
36799;SDS011;22752;51.960;5.886;2023-03-16T02:27:38;5.23;;;3.20;;
36799;SDS011;22752;51.960;5.886;2023-03-16T02:30:19;4.30;;;2.80;;
36799;SDS011;22752;51.960;5.886;2023-03-16T02:32:46;5.17;;;2.87;;
36799;SDS011;22752;51.960;5.886;2023-03-16T02:35:15;7.30;;;3.27;;
36799;SDS011;22752;51.960;5.886;2023-03-16T02:37:41;6.70;;;3.37;;
36799;SDS011;22752;51.960;5.886;2023-03-16T02:40:40;5.43;;;3.37;;
36799;SDS011;22752;51.960;5.886;2023-03-16T02:43:07;5.32;;;3.70;;
36799;SDS011;22752;51.960;5.886;2023-03-16T02:45:42;6.33;;;3.20;;
36799;SDS011;22752;51.960;5.886;2023-03-16T02:48:17;7.40;;;3.50;;
36799;SDS011;22752;51.960;5.886;2023-03-16T02:50:57;4.97;;;3.00;;
36799;SDS011;22752;51.960;5.886;2023-03-16T02:53:22;4.40;;;3.13;;
36799;SDS011;22752;51.960;5.886;2023-03-16T02:55:48;7.50;;;3.00;;
36799;SDS011;22752;51.960;5.886;2023-03-16T02:58:14;5.43;;;3.20;;
36799;SDS011;22752;51.960;5.886;2023-03-16T03:00:41;3.80;;;3.03;;
36799;SDS011;22752;51.960;5.886;2023-03-16T03:03:07;6.90;;;3.70;;
36799;SDS011;22752;51.960;5.886;2023-03-16T03:05:33;7.30;;;3.40;;
36799;SDS011;22752;51.960;5.886;2023-03-16T03:07:59;6.37;;;3.40;;
36799;SDS011;22752;51.960;5.886;2023-03-16T03:10:25;4.60;;;3.07;;
36799;SDS011;22752;51.960;5.886;2023-03-16T03:12:51;4.93;;;3.10;;
36799;SDS011;22752;51.960;5.886;2023-03-16T03:15:17;5.37;;;3.27;;
36799;SDS011;22752;51.960;5.886;2023-03-16T03:17:43;5.97;;;3.10;;
36799;SDS011;22752;51.960;5.886;2023-03-16T03:20:10;5.40;;;3.30;;
36799;SDS011;22752;51.960;5.886;2023-03-16T03:22:40;5.80;;;2.90;;
36799;SDS011;22752;51.960;5.886;2023-03-16T03:25:09;4.93;;;3.20;;
36799;SDS011;22752;51.960;5.886;2023-03-16T03:27:35;6.33;;;3.00;;
36799;SDS011;22752;51.960;5.886;2023-03-16T03:30:01;5.17;;;3.10;;
36799;SDS011;22752;51.960;5.886;2023-03-16T03:32:28;6.43;;;3.33;;
36799;SDS011;22752;51.960;5.886;2023-03-16T03:34:53;3.73;;;2.90;;
36799;SDS011;22752;51.960;5.886;2023-03-16T03:37:19;6.33;;;3.60;;
36799;SDS011;22752;51.960;5.886;2023-03-16T03:39:45;8.30;;;3.47;;
36799;SDS011;22752;51.960;5.886;2023-03-16T03:42:10;3.73;;;2.63;;
36799;SDS011;22752;51.960;5.886;2023-03-16T03:44:36;5.63;;;2.80;;
36799;SDS011;22752;51.960;5.886;2023-03-16T03:47:02;4.80;;;2.80;;
36799;SDS011;22752;51.960;5.886;2023-03-16T03:49:29;4.13;;;2.87;;
36799;SDS011;22752;51.960;5.886;2023-03-16T03:51:55;5.90;;;3.10;;
36799;SDS011;22752;51.960;5.886;2023-03-16T03:54:23;4.50;;;2.93;;
36799;SDS011;22752;51.960;5.886;2023-03-16T03:56:52;4.90;;;2.80;;
36799;SDS011;22752;51.960;5.886;2023-03-16T03:59:18;4.57;;;2.70;;
36799;SDS011;22752;51.960;5.886;2023-03-16T04:01:44;5.03;;;2.90;;
36799;SDS011;22752;51.960;5.886;2023-03-16T04:04:09;4.47;;;3.03;;
36799;SDS011;22752;51.960;5.886;2023-03-16T04:06:35;6.27;;;3.10;;
36799;SDS011;22752;51.960;5.886;2023-03-16T04:09:01;6.40;;;3.17;;
36799;SDS011;22752;51.960;5.886;2023-03-16T04:11:26;5.23;;;3.03;;
36799;SDS011;22752;51.960;5.886;2023-03-16T04:13:52;6.23;;;3.07;;
36799;SDS011;22752;51.960;5.886;2023-03-16T04:16:18;5.83;;;3.57;;
36799;SDS011;22752;51.960;5.886;2023-03-16T04:18:44;7.17;;;3.50;;
36799;SDS011;22752;51.960;5.886;2023-03-16T04:21:14;7.63;;;3.70;;
36799;SDS011;22752;51.960;5.886;2023-03-16T04:23:41;6.50;;;3.30;;
36799;SDS011;22752;51.960;5.886;2023-03-16T04:26:07;7.10;;;3.07;;
36799;SDS011;22752;51.960;5.886;2023-03-16T04:28:33;5.73;;;3.53;;
36799;SDS011;22752;51.960;5.886;2023-03-16T04:31:03;8.77;;;3.43;;
36799;SDS011;22752;51.960;5.886;2023-03-16T04:33:31;5.67;;;3.30;;
36799;SDS011;22752;51.960;5.886;2023-03-16T04:36:01;5.77;;;3.33;;
36799;SDS011;22752;51.960;5.886;2023-03-16T04:38:30;5.70;;;3.63;;
36799;SDS011;22752;51.960;5.886;2023-03-16T04:43:26;6.40;;;3.60;;
36799;SDS011;22752;51.960;5.886;2023-03-16T04:45:52;4.50;;;3.10;;
36799;SDS011;22752;51.960;5.886;2023-03-16T04:48:18;6.67;;;3.20;;
36799;SDS011;22752;51.960;5.886;2023-03-16T04:50:43;6.80;;;4.13;;
36799;SDS011;22752;51.960;5.886;2023-03-16T04:53:11;5.97;;;3.50;;
36799;SDS011;22752;51.960;5.886;2023-03-16T04:55:37;6.30;;;3.43;;
36799;SDS011;22752;51.960;5.886;2023-03-16T04:58:02;7.80;;;3.67;;
36799;SDS011;22752;51.960;5.886;2023-03-16T05:00:28;5.53;;;3.20;;
36799;SDS011;22752;51.960;5.886;2023-03-16T05:02:54;4.90;;;3.30;;
36799;SDS011;22752;51.960;5.886;2023-03-16T05:05:20;5.17;;;3.33;;
36799;SDS011;22752;51.960;5.886;2023-03-16T05:07:46;7.40;;;3.80;;
36799;SDS011;22752;51.960;5.886;2023-03-16T05:10:13;6.77;;;4.03;;
36799;SDS011;22752;51.960;5.886;2023-03-16T05:12:41;7.97;;;3.90;;
36799;SDS011;22752;51.960;5.886;2023-03-16T05:15:07;7.03;;;3.83;;
36799;SDS011;22752;51.960;5.886;2023-03-16T05:17:33;6.03;;;3.53;;
36799;SDS011;22752;51.960;5.886;2023-03-16T05:19:59;6.00;;;3.70;;
36799;SDS011;22752;51.960;5.886;2023-03-16T05:22:24;4.90;;;3.33;;
36799;SDS011;22752;51.960;5.886;2023-03-16T05:24:50;6.83;;;3.70;;
36799;SDS011;22752;51.960;5.886;2023-03-16T05:27:16;7.43;;;3.70;;
36799;SDS011;22752;51.960;5.886;2023-03-16T05:29:42;4.97;;;3.37;;
36799;SDS011;22752;51.960;5.886;2023-03-16T05:32:12;8.27;;;3.70;;
36799;SDS011;22752;51.960;5.886;2023-03-16T05:34:37;9.57;;;3.60;;
36799;SDS011;22752;51.960;5.886;2023-03-16T05:37:03;7.50;;;3.60;;
36799;SDS011;22752;51.960;5.886;2023-03-16T05:39:29;5.47;;;3.50;;
36799;SDS011;22752;51.960;5.886;2023-03-16T05:41:55;5.97;;;3.23;;
36799;SDS011;22752;51.960;5.886;2023-03-16T05:44:22;7.17;;;3.57;;
36799;SDS011;22752;51.960;5.886;2023-03-16T05:46:48;8.87;;;4.13;;
36799;SDS011;22752;51.960;5.886;2023-03-16T05:49:15;4.77;;;3.20;;
36799;SDS011;22752;51.960;5.886;2023-03-16T05:51:40;6.33;;;3.40;;
36799;SDS011;22752;51.960;5.886;2023-03-16T05:54:06;6.47;;;3.60;;
36799;SDS011;22752;51.960;5.886;2023-03-16T05:56:32;6.53;;;3.80;;
36799;SDS011;22752;51.960;5.886;2023-03-16T05:58:58;6.70;;;3.50;;
36799;SDS011;22752;51.960;5.886;2023-03-16T06:01:24;4.73;;;3.33;;
36799;SDS011;22752;51.960;5.886;2023-03-16T06:03:50;6.30;;;3.20;;
36799;SDS011;22752;51.960;5.886;2023-03-16T06:06:17;6.03;;;3.63;;
36799;SDS011;22752;51.960;5.886;2023-03-16T06:08:43;6.30;;;3.83;;
36799;SDS011;22752;51.960;5.886;2023-03-16T06:11:09;5.70;;;3.57;;
36799;SDS011;22752;51.960;5.886;2023-03-16T06:13:35;8.53;;;3.60;;
36799;SDS011;22752;51.960;5.886;2023-03-16T06:16:01;7.03;;;3.70;;
36799;SDS011;22752;51.960;5.886;2023-03-16T06:18:28;6.60;;;3.67;;
36799;SDS011;22752;51.960;5.886;2023-03-16T06:20:53;7.33;;;3.70;;
36799;SDS011;22752;51.960;5.886;2023-03-16T06:23:19;8.17;;;3.40;;
36799;SDS011;22752;51.960;5.886;2023-03-16T06:25:46;5.70;;;3.53;;
36799;SDS011;22752;51.960;5.886;2023-03-16T06:28:12;6.90;;;3.97;;
36799;SDS011;22752;51.960;5.886;2023-03-16T06:30:38;6.90;;;3.50;;
36799;SDS011;22752;51.960;5.886;2023-03-16T06:33:04;6.63;;;3.63;;
36799;SDS011;22752;51.960;5.886;2023-03-16T06:35:30;8.03;;;3.57;;
36799;SDS011;22752;51.960;5.886;2023-03-16T06:37:55;6.27;;;3.77;;
36799;SDS011;22752;51.960;5.886;2023-03-16T06:40:21;7.60;;;3.83;;
36799;SDS011;22752;51.960;5.886;2023-03-16T06:42:47;8.43;;;3.90;;
36799;SDS011;22752;51.960;5.886;2023-03-16T06:45:12;7.97;;;3.47;;
36799;SDS011;22752;51.960;5.886;2023-03-16T06:47:40;7.90;;;3.57;;
36799;SDS011;22752;51.960;5.886;2023-03-16T06:50:07;7.00;;;3.63;;
36799;SDS011;22752;51.960;5.886;2023-03-16T06:52:34;6.43;;;3.73;;
36799;SDS011;22752;51.960;5.886;2023-03-16T06:54:59;6.63;;;4.27;;
36799;SDS011;22752;51.960;5.886;2023-03-16T06:57:25;6.17;;;3.73;;
36799;SDS011;22752;51.960;5.886;2023-03-16T06:59:51;7.57;;;3.77;;
36799;SDS011;22752;51.960;5.886;2023-03-16T07:02:17;8.40;;;3.83;;
36799;SDS011;22752;51.960;5.886;2023-03-16T07:04:43;8.03;;;3.67;;
36799;SDS011;22752;51.960;5.886;2023-03-16T07:07:10;7.80;;;3.63;;
36799;SDS011;22752;51.960;5.886;2023-03-16T07:09:36;5.70;;;3.73;;
36799;SDS011;22752;51.960;5.886;2023-03-16T07:12:02;7.67;;;3.97;;
36799;SDS011;22752;51.960;5.886;2023-03-16T07:14:28;9.70;;;4.57;;
36799;SDS011;22752;51.960;5.886;2023-03-16T07:16:54;10.80;;;4.10;;
36799;SDS011;22752;51.960;5.886;2023-03-16T07:19:19;5.87;;;4.03;;
36799;SDS011;22752;51.960;5.886;2023-03-16T07:21:46;8.60;;;4.40;;
36799;SDS011;22752;51.960;5.886;2023-03-16T07:24:13;5.57;;;3.83;;
36799;SDS011;22752;51.960;5.886;2023-03-16T07:26:39;10.77;;;4.67;;
36799;SDS011;22752;51.960;5.886;2023-03-16T07:29:05;6.03;;;4.40;;
36799;SDS011;22752;51.960;5.886;2023-03-16T07:31:31;6.47;;;4.00;;
36799;SDS011;22752;51.960;5.886;2023-03-16T07:33:57;8.17;;;4.67;;
36799;SDS011;22752;51.960;5.886;2023-03-16T07:36:23;9.87;;;4.40;;
36799;SDS011;22752;51.960;5.886;2023-03-16T07:38:49;6.07;;;4.70;;
36799;SDS011;22752;51.960;5.886;2023-03-16T07:41:15;8.43;;;4.40;;
36799;SDS011;22752;51.960;5.886;2023-03-16T07:43:41;7.03;;;4.63;;
36799;SDS011;22752;51.960;5.886;2023-03-16T07:46:08;9.10;;;4.77;;
36799;SDS011;22752;51.960;5.886;2023-03-16T07:48:37;9.70;;;5.33;;
36799;SDS011;22752;51.960;5.886;2023-03-16T07:51:08;9.97;;;4.80;;
36799;SDS011;22752;51.960;5.886;2023-03-16T07:53:34;11.30;;;5.67;;
36799;SDS011;22752;51.960;5.886;2023-03-16T07:56:00;7.37;;;5.20;;
36799;SDS011;22752;51.960;5.886;2023-03-16T07:58:26;10.03;;;5.27;;
36799;SDS011;22752;51.960;5.886;2023-03-16T08:00:55;9.93;;;5.60;;
36799;SDS011;22752;51.960;5.886;2023-03-16T08:03:22;11.13;;;6.17;;
36799;SDS011;22752;51.960;5.886;2023-03-16T08:05:52;10.23;;;5.53;;
36799;SDS011;22752;51.960;5.886;2023-03-16T08:08:19;12.50;;;5.90;;
36799;SDS011;22752;51.960;5.886;2023-03-16T08:10:49;10.17;;;5.70;;
36799;SDS011;22752;51.960;5.886;2023-03-16T08:13:16;7.33;;;5.50;;
36799;SDS011;22752;51.960;5.886;2023-03-16T08:15:49;9.03;;;5.83;;
36799;SDS011;22752;51.960;5.886;2023-03-16T08:18:22;10.57;;;5.80;;
36799;SDS011;22752;51.960;5.886;2023-03-16T08:20:49;11.27;;;5.87;;
36799;SDS011;22752;51.960;5.886;2023-03-16T08:23:14;10.93;;;5.03;;
36799;SDS011;22752;51.960;5.886;2023-03-16T08:25:41;35.63;;;8.37;;
36799;SDS011;22752;51.960;5.886;2023-03-16T08:28:07;100.80;;;13.60;;
36799;SDS011;22752;51.960;5.886;2023-03-16T08:30:33;68.67;;;12.30;;
36799;SDS011;22752;51.960;5.886;2023-03-16T08:32:59;125.10;;;16.13;;
36799;SDS011;22752;51.960;5.886;2023-03-16T08:35:27;32.07;;;8.87;;
36799;SDS011;22752;51.960;5.886;2023-03-16T08:37:53;7.60;;;4.93;;
36799;SDS011;22752;51.960;5.886;2023-03-16T08:40:20;8.50;;;5.13;;
36799;SDS011;22752;51.960;5.886;2023-03-16T08:42:47;11.43;;;5.20;;
36799;SDS011;22752;51.960;5.886;2023-03-16T08:45:14;10.63;;;5.17;;
36799;SDS011;22752;51.960;5.886;2023-03-16T08:47:41;9.53;;;5.37;;
36799;SDS011;22752;51.960;5.886;2023-03-16T08:50:08;7.63;;;4.80;;
36799;SDS011;22752;51.960;5.886;2023-03-16T08:52:35;8.87;;;5.03;;
36799;SDS011;22752;51.960;5.886;2023-03-16T08:55:02;11.50;;;5.50;;
36799;SDS011;22752;51.960;5.886;2023-03-16T08:57:30;8.43;;;4.37;;
36799;SDS011;22752;51.960;5.886;2023-03-16T08:59:57;8.07;;;5.10;;
36799;SDS011;22752;51.960;5.886;2023-03-16T09:02:24;6.73;;;4.47;;
36799;SDS011;22752;51.960;5.886;2023-03-16T09:04:50;9.93;;;4.40;;
36799;SDS011;22752;51.960;5.886;2023-03-16T09:07:16;7.27;;;4.43;;
36799;SDS011;22752;51.960;5.886;2023-03-16T09:09:43;7.53;;;4.40;;
36799;SDS011;22752;51.960;5.886;2023-03-16T09:12:09;9.63;;;4.40;;
36799;SDS011;22752;51.960;5.886;2023-03-16T09:14:35;8.80;;;4.20;;
36799;SDS011;22752;51.960;5.886;2023-03-16T09:17:02;6.97;;;4.40;;
36799;SDS011;22752;51.960;5.886;2023-03-16T09:19:29;8.13;;;4.43;;
36799;SDS011;22752;51.960;5.886;2023-03-16T09:21:57;136.33;;;16.67;;
36799;SDS011;22752;51.960;5.886;2023-03-16T09:24:23;38.63;;;8.37;;
36799;SDS011;22752;51.960;5.886;2023-03-16T09:26:49;17.63;;;5.13;;
36799;SDS011;22752;51.960;5.886;2023-03-16T09:29:15;8.73;;;4.30;;
36799;SDS011;22752;51.960;5.886;2023-03-16T09:31:42;9.23;;;4.23;;
36799;SDS011;22752;51.960;5.886;2023-03-16T09:34:08;9.33;;;4.57;;
36799;SDS011;22752;51.960;5.886;2023-03-16T09:36:34;12.87;;;4.53;;
36799;SDS011;22752;51.960;5.886;2023-03-16T09:39:00;7.60;;;3.80;;
36799;SDS011;22752;51.960;5.886;2023-03-16T09:41:40;7.07;;;4.03;;
36799;SDS011;22752;51.960;5.886;2023-03-16T09:46:56;6.13;;;4.10;;
36799;SDS011;22752;51.960;5.886;2023-03-16T09:49:26;9.07;;;3.73;;
36799;SDS011;22752;51.960;5.886;2023-03-16T09:57:25;9.40;;;4.00;;
36799;SDS011;22752;51.960;5.886;2023-03-16T09:59:53;14.33;;;4.90;;
36799;SDS011;22752;51.960;5.886;2023-03-16T10:05:08;8.13;;;4.03;;
36799;SDS011;22752;51.960;5.886;2023-03-16T10:11:01;5.57;;;3.60;;
36799;SDS011;22752;51.960;5.886;2023-03-16T10:13:39;5.93;;;3.77;;
36799;SDS011;22752;51.960;5.886;2023-03-16T10:19:19;6.33;;;4.10;;
36799;SDS011;22752;51.960;5.886;2023-03-16T10:22:19;84.13;;;11.77;;
36799;SDS011;22752;51.960;5.886;2023-03-16T10:27:29;7.17;;;3.63;;
36799;SDS011;22752;51.960;5.886;2023-03-16T10:29:57;8.60;;;3.57;;
36799;SDS011;22752;51.960;5.886;2023-03-16T10:32:29;6.80;;;3.60;;
36799;SDS011;22752;51.960;5.886;2023-03-16T10:37:43;10.10;;;3.90;;
36799;SDS011;22752;51.960;5.886;2023-03-16T10:40:10;6.33;;;3.77;;
36799;SDS011;22752;51.960;5.886;2023-03-16T10:42:36;5.13;;;3.20;;
36799;SDS011;22752;51.960;5.886;2023-03-16T10:45:03;7.20;;;3.40;;
36799;SDS011;22752;51.960;5.886;2023-03-16T10:47:31;7.53;;;3.50;;
36799;SDS011;22752;51.960;5.886;2023-03-16T10:49:57;5.83;;;3.47;;
36799;SDS011;22752;51.960;5.886;2023-03-16T10:55:49;8.63;;;3.70;;
36799;SDS011;22752;51.960;5.886;2023-03-16T10:57:58;5.20;;;3.40;;
36799;SDS011;22752;51.960;5.886;2023-03-16T11:00:29;6.00;;;3.30;;
36799;SDS011;22752;51.960;5.886;2023-03-16T11:03:00;7.43;;;3.17;;
36799;SDS011;22752;51.960;5.886;2023-03-16T11:05:27;8.90;;;3.17;;
36799;SDS011;22752;51.960;5.886;2023-03-16T11:08:06;4.57;;;3.00;;
36799;SDS011;22752;51.960;5.886;2023-03-16T11:10:38;8.07;;;3.30;;
36799;SDS011;22752;51.960;5.886;2023-03-16T11:20:52;5.63;;;3.20;;
36799;SDS011;22752;51.960;5.886;2023-03-16T11:23:20;6.37;;;3.43;;
36799;SDS011;22752;51.960;5.886;2023-03-16T11:25:54;4.80;;;2.80;;
36799;SDS011;22752;51.960;5.886;2023-03-16T11:28:36;8.70;;;3.10;;
36799;SDS011;22752;51.960;5.886;2023-03-16T11:33:45;5.43;;;3.67;;
36799;SDS011;22752;51.960;5.886;2023-03-16T11:36:23;6.33;;;2.87;;
36799;SDS011;22752;51.960;5.886;2023-03-16T11:56:35;5.43;;;2.40;;
36799;SDS011;22752;51.960;5.886;2023-03-16T12:16:06;6.28;;;2.22;;
36799;SDS011;22752;51.960;5.886;2023-03-16T12:21:41;3.97;;;2.07;;
36799;SDS011;22752;51.960;5.886;2023-03-16T12:24:19;6.33;;;2.47;;
36799;SDS011;22752;51.960;5.886;2023-03-16T12:26:50;8.60;;;2.70;;
36799;SDS011;22752;51.960;5.886;2023-03-16T12:31:59;4.50;;;2.27;;
36799;SDS011;22752;51.960;5.886;2023-03-16T12:40:02;4.73;;;2.20;;
36799;SDS011;22752;51.960;5.886;2023-03-16T12:51:10;4.05;;;2.20;;
36799;SDS011;22752;51.960;5.886;2023-03-16T12:53:44;4.93;;;2.47;;
36799;SDS011;22752;51.960;5.886;2023-03-16T12:56:11;5.10;;;2.30;;
36799;SDS011;22752;51.960;5.886;2023-03-16T12:58:46;8.43;;;3.13;;
36799;SDS011;22752;51.960;5.886;2023-03-16T13:01:15;4.72;;;2.22;;
36799;SDS011;22752;51.960;5.886;2023-03-16T13:03:45;5.72;;;2.50;;
36799;SDS011;22752;51.960;5.886;2023-03-16T13:06:17;4.28;;;2.22;;
36799;SDS011;22752;51.960;5.886;2023-03-16T13:11:16;4.47;;;2.37;;
36799;SDS011;22752;51.960;5.886;2023-03-16T13:13:52;6.60;;;2.17;;
36799;SDS011;22752;51.960;5.886;2023-03-16T13:16:36;5.03;;;2.72;;
36799;SDS011;22752;51.960;5.886;2023-03-16T13:21:44;6.85;;;2.50;;
36799;SDS011;22752;51.960;5.886;2023-03-16T13:26:48;6.68;;;2.30;;
36799;SDS011;22752;51.960;5.886;2023-03-16T13:29:21;3.53;;;2.05;;
36799;SDS011;22752;51.960;5.886;2023-03-16T13:31:55;4.45;;;2.45;;
36799;SDS011;22752;51.960;5.886;2023-03-16T13:34:48;6.18;;;2.72;;
36799;SDS011;22752;51.960;5.886;2023-03-16T13:37:17;7.82;;;2.50;;
36799;SDS011;22752;51.960;5.886;2023-03-16T13:42:48;6.47;;;2.40;;
36799;SDS011;22752;51.960;5.886;2023-03-16T13:45:36;3.47;;;2.33;;
36799;SDS011;22752;51.960;5.886;2023-03-16T13:48:02;9.23;;;2.22;;
36799;SDS011;22752;51.960;5.886;2023-03-16T13:50:32;5.63;;;2.50;;
36799;SDS011;22752;51.960;5.886;2023-03-16T13:53:03;6.72;;;2.10;;
36799;SDS011;22752;51.960;5.886;2023-03-16T13:55:35;6.60;;;2.13;;
36799;SDS011;22752;51.960;5.886;2023-03-16T13:58:02;8.10;;;2.90;;
36799;SDS011;22752;51.960;5.886;2023-03-16T14:00:35;7.88;;;2.83;;
36799;SDS011;22752;51.960;5.886;2023-03-16T14:03:10;3.80;;;2.10;;
36799;SDS011;22752;51.960;5.886;2023-03-16T14:05:42;4.43;;;2.20;;
36799;SDS011;22752;51.960;5.886;2023-03-16T14:08:13;4.53;;;2.00;;
36799;SDS011;22752;51.960;5.886;2023-03-16T14:10:45;6.07;;;2.20;;
36799;SDS011;22752;51.960;5.886;2023-03-16T14:13:25;5.18;;;2.30;;
36799;SDS011;22752;51.960;5.886;2023-03-16T14:15:58;5.68;;;2.55;;
36799;SDS011;22752;51.960;5.886;2023-03-16T14:21:18;6.80;;;2.40;;
36799;SDS011;22752;51.960;5.886;2023-03-16T14:23:56;4.22;;;2.33;;
36799;SDS011;22752;51.960;5.886;2023-03-16T14:26:42;5.90;;;2.55;;
36799;SDS011;22752;51.960;5.886;2023-03-16T14:29:15;6.55;;;2.70;;
36799;SDS011;22752;51.960;5.886;2023-03-16T14:31:43;3.47;;;1.98;;
36799;SDS011;22752;51.960;5.886;2023-03-16T14:34:26;6.60;;;2.17;;
36799;SDS011;22752;51.960;5.886;2023-03-16T14:37:10;7.35;;;2.58;;
36799;SDS011;22752;51.960;5.886;2023-03-16T14:39:37;5.10;;;2.15;;
36799;SDS011;22752;51.960;5.886;2023-03-16T14:42:14;5.82;;;2.47;;
36799;SDS011;22752;51.960;5.886;2023-03-16T14:44:45;4.80;;;2.35;;
36799;SDS011;22752;51.960;5.886;2023-03-16T14:47:16;7.85;;;2.40;;
36799;SDS011;22752;51.960;5.886;2023-03-16T14:49:48;6.43;;;2.10;;
36799;SDS011;22752;51.960;5.886;2023-03-16T14:52:22;5.47;;;1.70;;
36799;SDS011;22752;51.960;5.886;2023-03-16T14:54:55;5.82;;;1.90;;
36799;SDS011;22752;51.960;5.886;2023-03-16T14:57:22;6.00;;;2.00;;
36799;SDS011;22752;51.960;5.886;2023-03-16T14:59:48;3.83;;;1.75;;
36799;SDS011;22752;51.960;5.886;2023-03-16T15:02:18;4.07;;;2.00;;
36799;SDS011;22752;51.960;5.886;2023-03-16T15:04:55;3.72;;;1.85;;
36799;SDS011;22752;51.960;5.886;2023-03-16T15:07:25;4.05;;;1.83;;
36799;SDS011;22752;51.960;5.886;2023-03-16T15:09:53;2.42;;;1.50;;
36799;SDS011;22752;51.960;5.886;2023-03-16T15:12:24;3.22;;;1.60;;
36799;SDS011;22752;51.960;5.886;2023-03-16T15:14:50;6.82;;;2.10;;
36799;SDS011;22752;51.960;5.886;2023-03-16T15:17:34;5.60;;;1.63;;
36799;SDS011;22752;51.960;5.886;2023-03-16T15:20:00;2.80;;;1.48;;
36799;SDS011;22752;51.960;5.886;2023-03-16T15:22:28;7.70;;;1.80;;
36799;SDS011;22752;51.960;5.886;2023-03-16T15:24:56;6.85;;;1.70;;
36799;SDS011;22752;51.960;5.886;2023-03-16T15:27:24;4.72;;;2.10;;
36799;SDS011;22752;51.960;5.886;2023-03-16T15:29:55;5.85;;;2.10;;
36799;SDS011;22752;51.960;5.886;2023-03-16T15:32:21;5.65;;;1.80;;
36799;SDS011;22752;51.960;5.886;2023-03-16T15:34:47;3.25;;;1.80;;
36799;SDS011;22752;51.960;5.886;2023-03-16T15:37:17;7.18;;;1.80;;
36799;SDS011;22752;51.960;5.886;2023-03-16T15:39:44;5.43;;;1.73;;
36799;SDS011;22752;51.960;5.886;2023-03-16T15:42:17;4.15;;;1.52;;
36799;SDS011;22752;51.960;5.886;2023-03-16T15:44:44;4.43;;;1.60;;
36799;SDS011;22752;51.960;5.886;2023-03-16T15:47:10;5.30;;;1.85;;
36799;SDS011;22752;51.960;5.886;2023-03-16T15:49:37;2.30;;;1.20;;
36799;SDS011;22752;51.960;5.886;2023-03-16T15:52:03;5.20;;;1.50;;
36799;SDS011;22752;51.960;5.886;2023-03-16T15:54:31;5.72;;;1.42;;
36799;SDS011;22752;51.960;5.886;2023-03-16T15:56:58;4.32;;;1.40;;
36799;SDS011;22752;51.960;5.886;2023-03-16T15:59:25;3.67;;;1.55;;
36799;SDS011;22752;51.960;5.886;2023-03-16T16:01:55;3.67;;;1.30;;
36799;SDS011;22752;51.960;5.886;2023-03-16T16:04:21;8.30;;;1.95;;
36799;SDS011;22752;51.960;5.886;2023-03-16T16:06:49;2.85;;;1.30;;
36799;SDS011;22752;51.960;5.886;2023-03-16T16:09:18;2.45;;;1.13;;
36799;SDS011;22752;51.960;5.886;2023-03-16T16:11:44;4.65;;;1.35;;
36799;SDS011;22752;51.960;5.886;2023-03-16T16:14:13;8.52;;;1.35;;
36799;SDS011;22752;51.960;5.886;2023-03-16T16:16:42;5.15;;;1.92;;
36799;SDS011;22752;51.960;5.886;2023-03-16T16:19:13;3.50;;;1.30;;
36799;SDS011;22752;51.960;5.886;2023-03-16T16:21:40;3.08;;;1.52;;
36799;SDS011;22752;51.960;5.886;2023-03-16T16:24:06;4.55;;;1.23;;
36799;SDS011;22752;51.960;5.886;2023-03-16T16:26:39;6.53;;;2.28;;
36799;SDS011;22752;51.960;5.886;2023-03-16T16:29:12;5.60;;;1.80;;
36799;SDS011;22752;51.960;5.886;2023-03-16T16:31:42;6.28;;;2.10;;
36799;SDS011;22752;51.960;5.886;2023-03-16T16:34:15;4.00;;;1.55;;
36799;SDS011;22752;51.960;5.886;2023-03-16T16:36:43;2.60;;;1.30;;
36799;SDS011;22752;51.960;5.886;2023-03-16T16:39:08;3.65;;;1.50;;
36799;SDS011;22752;51.960;5.886;2023-03-16T16:41:35;6.03;;;1.83;;
36799;SDS011;22752;51.960;5.886;2023-03-16T16:44:01;4.85;;;1.60;;